Time;durP1;ratioP1;P1;durP2;ratioP2;P2;SDS_P1;SDS_P2;PMS_P1;PMS_P2;Temp;Humidity;BMP_temperature;BMP_pressure;BME280_temperature;BME280_humidity;BME280_pressure;Samples;Min_cycle;Max_cycle;Signal;HPM_P1;HPM_P2
2022/07/07 00:02:11;;;;;;;9.10;8.40;;;;;;;14.95;100.00;99243.10;104853;1271;60596;-75
2022/07/07 00:04:37;;;;;;;8.30;7.50;;;;;;;14.97;100.00;99242.73;105195;1271;60582;-75
2022/07/07 00:07:03;;;;;;;6.90;6.20;;;;;;;14.98;100.00;99246.75;105182;1271;60494;-74
2022/07/07 00:09:30;;;;;;;7.40;6.80;;;;;;;14.99;100.00;99244.02;105233;1271;60541;-76
2022/07/07 00:11:58;;;;;;;7.90;7.20;;;;;;;14.99;100.00;99242.22;105242;1271;60913;-75
2022/07/07 00:14:24;;;;;;;8.90;7.70;;;;;;;15.00;100.00;99241.77;105243;1271;60545;-74
2022/07/07 00:16:50;;;;;;;9.10;8.20;;;;;;;15.00;100.00;99241.06;105242;1271;60517;-74
2022/07/07 00:19:17;;;;;;;8.10;7.30;;;;;;;15.01;100.00;99242.26;105005;1272;60514;-74
2022/07/07 00:21:42;;;;;;;9.80;8.50;;;;;;;15.03;100.00;99243.18;105235;1271;60569;-74
2022/07/07 00:24:09;;;;;;;9.40;7.80;;;;;;;15.05;100.00;99242.23;105218;1271;60486;-75
2022/07/07 00:26:36;;;;;;;8.80;7.90;;;;;;;15.08;100.00;99237.90;105258;1271;62077;-74
2022/07/07 00:29:02;;;;;;;10.40;7.50;;;;;;;15.11;100.00;99236.04;105323;1271;60886;-75
2022/07/07 00:31:28;;;;;;;7.40;6.60;;;;;;;15.11;100.00;99233.89;105256;1271;60924;-75
2022/07/07 00:33:55;;;;;;;7.50;6.40;;;;;;;15.11;100.00;99235.73;105344;1270;60484;-74
2022/07/07 00:36:20;;;;;;;6.80;6.20;;;;;;;15.10;100.00;99233.03;105420;1271;60482;-74
2022/07/07 00:38:47;;;;;;;6.70;6.10;;;;;;;15.11;100.00;99233.35;105635;1271;60455;-74
2022/07/07 00:41:14;;;;;;;7.40;5.40;;;;;;;15.11;100.00;99228.17;105796;1271;60578;-75
2022/07/07 00:43:42;;;;;;;5.90;5.30;;;;;;;15.10;100.00;99227.13;105780;1271;60631;-75
2022/07/07 00:46:09;;;;;;;6.40;5.80;;;;;;;15.10;100.00;99228.23;106763;1271;60366;-75
2022/07/07 00:48:38;;;;;;;5.90;5.40;;;;;;;15.11;100.00;99233.21;108523;1270;58305;-74
2022/07/07 00:51:05;;;;;;;6.40;5.60;;;;;;;15.12;100.00;99241.20;108421;1271;59994;-74
2022/07/07 00:53:32;;;;;;;6.60;6.00;;;;;;;15.12;100.00;99246.70;107668;1271;60920;-74
2022/07/07 00:55:58;;;;;;;7.40;6.70;;;;;;;15.13;100.00;99263.45;107808;1270;74562;-76
2022/07/07 00:58:24;;;;;;;11.40;8.90;;;;;;;15.11;100.00;99263.98;105450;1271;59586;-75
2022/07/07 01:00:51;;;;;;;9.90;8.30;;;;;;;15.10;100.00;99259.77;105251;1271;60495;-74
2022/07/07 01:03:17;;;;;;;9.60;8.20;;;;;;;15.10;100.00;99257.02;105201;1271;60452;-75
2022/07/07 01:05:46;;;;;;;8.80;7.90;;;;;;;15.10;100.00;99257.59;105216;1271;60528;-75
2022/07/07 01:08:16;;;;;;;8.20;7.50;;;;;;;15.11;100.00;99244.45;105109;1271;75718;-76
2022/07/07 01:10:45;;;;;;;8.60;7.90;;;;;;;15.13;100.00;99242.50;105364;1270;70241;-75
2022/07/07 01:13:13;;;;;;;8.70;7.80;;;;;;;15.13;100.00;99240.17;105238;1271;73812;-75
2022/07/07 01:15:38;;;;;;;8.90;8.10;;;;;;;15.15;100.00;99243.77;105150;1271;60559;-75
2022/07/07 01:18:06;;;;;;;9.30;7.70;;;;;;;15.16;100.00;99248.87;105174;1271;60493;-76
2022/07/07 01:20:34;;;;;;;9.60;8.60;;;;;;;15.15;100.00;99259.67;105359;1271;74421;-75
2022/07/07 01:23:01;;;;;;;9.80;8.90;;;;;;;15.14;100.00;99256.91;104972;1271;70216;-75
2022/07/07 01:25:27;;;;;;;12.20;9.40;;;;;;;15.15;100.00;99265.08;105222;1271;72748;-74
2022/07/07 01:27:53;;;;;;;9.50;8.50;;;;;;;15.14;100.00;99259.56;105159;1271;61134;-76
2022/07/07 01:30:19;;;;;;;10.10;8.40;;;;;;;15.14;100.00;99252.09;105147;1271;60562;-75
2022/07/07 01:32:46;;;;;;;11.50;9.70;;;;;;;15.12;100.00;99251.17;105196;1271;60773;-73
2022/07/07 01:35:12;;;;;;;10.50;9.30;;;;;;;15.11;100.00;99253.36;105157;1271;60517;-74
2022/07/07 01:37:38;;;;;;;10.10;8.90;;;;;;;15.12;100.00;99245.48;105131;1271;60485;-74
2022/07/07 01:40:05;;;;;;;10.90;9.10;;;;;;;15.12;100.00;99241.16;105164;1271;60564;-75
2022/07/07 01:42:32;;;;;;;10.40;9.30;;;;;;;15.13;100.00;99237.25;105136;1271;60565;-75
2022/07/07 01:44:58;;;;;;;11.10;9.30;;;;;;;15.13;100.00;99233.77;105153;1271;60477;-75
2022/07/07 01:47:24;;;;;;;10.60;9.50;;;;;;;15.12;100.00;99234.92;104935;1271;62488;-76
2022/07/07 01:49:51;;;;;;;9.90;8.20;;;;;;;15.10;100.00;99232.22;105147;1271;60578;-75
2022/07/07 01:52:18;;;;;;;10.60;9.50;;;;;;;15.08;100.00;99224.30;105125;1271;60482;-74
2022/07/07 01:54:44;;;;;;;11.10;10.00;;;;;;;15.06;100.00;99220.56;105159;1270;60472;-74
2022/07/07 01:57:11;;;;;;;12.20;11.00;;;;;;;15.01;100.00;99218.21;104939;1271;61059;-75
2022/07/07 01:59:38;;;;;;;12.50;11.30;;;;;;;14.96;100.00;99221.34;105180;1271;60555;-76
2022/07/07 02:02:05;;;;;;;14.40;13.00;;;;;;;14.85;100.00;99224.01;105144;1271;60795;-75
2022/07/07 02:04:31;;;;;;;14.20;12.60;;;;;;;14.76;100.00;99221.35;104893;1274;60587;-76
2022/07/07 02:06:57;;;;;;;12.90;11.50;;;;;;;14.67;100.00;99215.84;105240;1271;60584;-75
2022/07/07 02:09:23;;;;;;;14.40;11.40;;;;;;;14.60;100.00;99208.16;105160;1271;60335;-74
2022/07/07 02:11:50;;;;;;;10.90;9.80;;;;;;;14.55;100.00;99210.58;105147;1271;60482;-74
2022/07/07 02:14:15;;;;;;;13.00;11.80;;;;;;;14.47;100.00;99213.10;105144;1271;60494;-74
2022/07/07 02:16:42;;;;;;;12.80;11.70;;;;;;;14.38;100.00;99218.08;105150;1271;60513;-74
2022/07/07 02:19:08;;;;;;;12.80;11.50;;;;;;;14.30;100.00;99219.41;105196;1270;60440;-75
2022/07/07 02:21:35;;;;;;;12.10;11.00;;;;;;;14.24;100.00;99219.88;105153;1271;60657;-73
2022/07/07 02:24:02;;;;;;;12.50;10.30;;;;;;;14.20;100.00;99219.17;105240;1271;60491;-74
2022/07/07 02:26:29;;;;;;;12.50;10.00;;;;;;;14.15;100.00;99224.22;105187;1271;60508;-75
2022/07/07 02:28:55;;;;;;;10.90;9.80;;;;;;;14.13;100.00;99221.48;105151;1271;60589;-74
2022/07/07 02:31:21;;;;;;;12.00;10.50;;;;;;;14.11;100.00;99225.01;105214;1271;60584;-75
2022/07/07 02:33:48;;;;;;;12.30;10.30;;;;;;;14.11;100.00;99223.98;105206;1270;60546;-74
2022/07/07 02:36:13;;;;;;;11.10;10.00;;;;;;;14.10;100.00;99220.82;104920;1271;60470;-75
2022/07/07 02:38:40;;;;;;;10.70;9.70;;;;;;;14.10;100.00;99213.38;105156;1271;60971;-76
2022/07/07 02:41:07;;;;;;;12.70;10.30;;;;;;;14.07;100.00;99213.03;104891;1274;60549;-74
2022/07/07 02:43:34;;;;;;;13.70;9.50;;;;;;;14.05;100.00;99210.32;105268;1271;60426;-73
2022/07/07 02:46:00;;;;;;;10.60;9.10;;;;;;;14.02;100.00;99207.85;105186;1271;60628;-75
2022/07/07 02:48:27;;;;;;;12.40;10.10;;;;;;;14.00;100.00;99210.31;104866;1271;60677;-74
2022/07/07 02:50:53;;;;;;;12.00;10.70;;;;;;;14.00;100.00;99211.77;105177;1271;60507;-76
2022/07/07 02:53:21;;;;;;;12.40;10.70;;;;;;;13.98;100.00;99218.33;104954;1271;60564;-74
2022/07/07 02:55:48;;;;;;;14.60;10.50;;;;;;;13.99;100.00;99226.34;104927;1271;60550;-74
2022/07/07 02:58:19;;;;;;;12.70;10.40;;;;;;;14.01;100.00;99225.45;105109;1271;60301;-74
2022/07/07 03:00:47;;;;;;;14.90;11.00;;;;;;;14.06;100.00;99226.36;105109;1271;69227;-75
2022/07/07 03:03:13;;;;;;;12.40;10.80;;;;;;;14.11;100.00;99226.30;105222;1271;73210;-74
2022/07/07 03:05:39;;;;;;;12.70;11.40;;;;;;;14.14;100.00;99225.00;105140;1271;60518;-74
2022/07/07 03:08:05;;;;;;;13.20;11.00;;;;;;;14.19;100.00;99221.95;105122;1271;60500;-75
2022/07/07 03:10:31;;;;;;;11.30;10.20;;;;;;;14.24;100.00;99216.52;105146;1271;60356;-76
2022/07/07 03:12:57;;;;;;;13.40;10.30;;;;;;;14.28;100.00;99215.48;105153;1271;60571;-73
2022/07/07 03:15:24;;;;;;;14.20;9.90;;;;;;;14.31;100.00;99212.05;105164;1271;60491;-74
2022/07/07 03:17:52;;;;;;;11.30;9.40;;;;;;;14.32;100.00;99211.02;104927;1271;60561;-75
2022/07/07 03:20:18;;;;;;;13.40;9.10;;;;;;;14.37;100.00;99211.21;104895;1274;60673;-74
2022/07/07 03:22:45;;;;;;;11.30;8.90;;;;;;;14.41;100.00;99208.00;104852;1274;60491;-74
2022/07/07 03:25:12;;;;;;;10.90;8.90;;;;;;;14.44;100.00;99205.47;104900;1274;60504;-76
2022/07/07 03:27:39;;;;;;;9.60;8.70;;;;;;;14.49;100.00;99205.56;104901;1274;60379;-74
2022/07/07 03:30:08;;;;;;;10.20;7.40;;;;;;;14.59;100.00;99207.20;104539;1275;61431;-75
2022/07/07 03:32:34;;;;;;;9.50;8.50;;;;;;;14.96;100.00;99199.55;104785;1275;60576;-75
2022/07/07 03:35:04;;;;;;;11.20;7.70;;;;;;;15.31;100.00;99200.41;104890;1274;60398;-73
2022/07/07 03:37:32;;;;;;;8.60;6.70;;;;;;;16.06;100.00;99197.48;104889;1274;69358;-74
2022/07/07 03:39:58;;;;;;;6.90;6.20;;;;;;;16.71;100.00;99201.12;104876;1274;74233;-74
2022/07/07 03:42:24;;;;;;;8.00;5.90;;;;;;;17.04;100.00;99200.17;104897;1274;60501;-74
2022/07/07 03:44:51;;;;;;;6.20;5.60;;;;;;;17.25;100.00;99196.27;104908;1274;60538;-74
2022/07/07 03:47:16;;;;;;;7.00;5.30;;;;;;;17.49;100.00;99196.77;104959;1274;60583;-74
2022/07/07 03:49:42;;;;;;;6.90;5.80;;;;;;;17.71;100.00;99197.02;105078;1274;61059;-75
2022/07/07 03:52:09;;;;;;;9.80;5.60;;;;;;;17.82;100.00;99196.36;105736;1271;60596;-76
2022/07/07 03:54:34;;;;;;;6.70;5.10;;;;;;;18.16;100.00;99199.15;105800;1271;60488;-75
2022/07/07 03:57:00;;;;;;;6.00;4.80;;;;;;;18.50;100.00;99193.92;105602;1271;60516;-74
2022/07/07 03:59:27;;;;;;;7.90;5.10;;;;;;;18.84;100.00;99199.20;105180;1271;60486;-75
2022/07/07 04:01:53;;;;;;;6.80;4.90;;;;;;;19.45;100.00;99196.23;105198;1271;72528;-75
2022/07/07 04:04:19;;;;;;;6.20;4.80;;;;;;;19.50;100.00;99193.94;105177;1271;60360;-75
2022/07/07 04:06:45;;;;;;;6.00;4.20;;;;;;;19.59;100.00;99191.56;105186;1271;60497;-75
2022/07/07 04:09:11;;;;;;;5.50;4.40;;;;;;;20.03;100.00;99198.69;104930;1271;60510;-75
2022/07/07 04:11:37;;;;;;;5.00;4.50;;;;;;;20.27;100.00;99192.47;104950;1274;60597;-81
2022/07/07 04:14:04;;;;;;;7.70;4.40;;;;;;;19.58;100.00;99189.59;105158;1271;61477;-81
2022/07/07 04:16:30;;;;;;;5.60;5.00;;;;;;;19.01;100.00;99190.54;105229;1271;61101;-79
2022/07/07 04:18:57;;;;;;;5.10;4.60;;;;;;;18.91;100.00;99192.80;105005;1274;62355;-78
2022/07/07 04:21:24;;;;;;;4.80;4.40;;;;;;;19.97;100.00;99188.27;105152;1271;60619;-80
2022/07/07 04:23:50;;;;;;;4.70;4.20;;;;;;;20.81;100.00;99188.69;105185;1271;60670;-78
2022/07/07 04:26:16;;;;;;;5.40;4.90;;;;;;;21.29;100.00;99188.10;105208;1270;60607;-80
2022/07/07 04:28:42;;;;;;;6.20;4.70;;;;;;;21.12;100.00;99188.80;105197;1271;60468;-80
2022/07/07 04:31:08;;;;;;;6.10;4.40;;;;;;;21.31;100.00;99188.20;105163;1271;60494;-79
2022/07/07 04:33:34;;;;;;;5.80;4.90;;;;;;;21.87;100.00;99182.45;105200;1270;60490;-80
2022/07/07 04:36:01;;;;;;;5.10;4.50;;;;;;;22.17;100.00;99178.09;105164;1271;60471;-80
2022/07/07 04:38:26;;;;;;;5.10;4.70;;;;;;;22.47;100.00;99174.09;105217;1271;60507;-80
2022/07/07 04:40:53;;;;;;;7.50;4.90;;;;;;;23.02;100.00;99168.95;105161;1271;61172;-80
2022/07/07 04:43:20;;;;;;;6.70;4.70;;;;;;;23.40;100.00;99172.26;105025;1271;60501;-80
2022/07/07 04:45:46;;;;;;;4.50;4.20;;;;;;;23.82;100.00;99170.09;105001;1271;60682;-81
2022/07/07 04:48:12;;;;;;;4.90;4.00;;;;;;;24.09;100.00;99174.30;105184;1271;60488;-80
2022/07/07 04:50:38;;;;;;;7.20;4.00;;;;;;;24.49;100.00;99177.81;105201;1271;60482;-79
2022/07/07 04:53:04;;;;;;;4.50;3.60;;;;;;;25.00;100.00;99172.76;105202;1271;60501;-80
2022/07/07 04:55:30;;;;;;;5.80;4.30;;;;;;;25.31;100.00;99172.60;105194;1271;60497;-80
2022/07/07 04:57:56;;;;;;;4.70;4.30;;;;;;;25.65;100.00;99172.56;105182;1271;60921;-80
2022/07/07 05:00:22;;;;;;;6.00;4.30;;;;;;;25.86;100.00;99169.83;105202;1271;60520;-81
2022/07/07 05:02:48;;;;;;;4.30;3.90;;;;;;;25.88;100.00;99169.50;105191;1271;60472;-80
2022/07/07 05:05:15;;;;;;;4.50;3.70;;;;;;;25.19;100.00;99169.27;105246;1271;60484;-81
2022/07/07 05:07:41;;;;;;;5.80;4.10;;;;;;;25.11;100.00;99167.55;105176;1271;69412;-80
2022/07/07 05:10:08;;;;;;;4.20;3.80;;;;;;;25.37;100.00;99166.94;105170;1271;60469;-80
2022/07/07 05:12:34;;;;;;;6.50;5.00;;;;;;;25.87;100.00;99170.75;105180;1271;60407;-79
2022/07/07 05:15:00;;;;;;;6.40;4.00;;;;;;;26.14;100.00;99170.19;105193;1271;60455;-80
2022/07/07 05:17:27;;;;;;;6.20;4.30;;;;;;;25.98;100.00;99170.36;105155;1271;60479;-81
2022/07/07 05:19:53;;;;;;;7.10;4.70;;;;;;;25.51;100.00;99172.05;105183;1271;60497;-82
2022/07/07 05:22:20;;;;;;;5.50;4.30;;;;;;;25.50;100.00;99170.27;105176;1271;60526;-81
2022/07/07 05:24:46;;;;;;;6.50;4.30;;;;;;;25.32;100.00;99166.02;105154;1271;60502;-81
2022/07/07 05:27:12;;;;;;;5.60;4.60;;;;;;;24.82;100.00;99166.67;105150;1271;60507;-80
2022/07/07 05:29:38;;;;;;;5.40;4.10;;;;;;;24.67;100.00;99161.90;105182;1271;60446;-80
2022/07/07 05:32:04;;;;;;;4.70;4.20;;;;;;;24.08;100.00;99169.48;105121;1271;60490;-81
2022/07/07 05:34:30;;;;;;;5.10;4.70;;;;;;;23.76;100.00;99166.04;105137;1271;60566;-81
2022/07/07 05:36:57;;;;;;;4.10;3.70;;;;;;;24.31;100.00;99161.80;105222;1271;60927;-80
2022/07/07 05:39:24;;;;;;;5.80;4.50;;;;;;;24.08;100.00;99157.79;105213;1271;59880;-81
2022/07/07 05:41:49;;;;;;;7.80;4.50;;;;;;;23.65;100.00;99163.81;104893;1274;60369;-81
2022/07/07 05:44:16;;;;;;;5.40;4.10;;;;;;;23.89;100.00;99160.71;105247;1271;60500;-81
2022/07/07 05:46:42;;;;;;;6.60;4.40;;;;;;;24.32;100.00;99160.01;105299;1271;60475;-80
2022/07/07 05:49:08;;;;;;;6.90;4.90;;;;;;;24.72;100.00;99157.73;105218;1271;60498;-79
2022/07/07 05:51:34;;;;;;;8.40;4.50;;;;;;;24.97;100.00;99155.83;105260;1271;60506;-75
2022/07/07 05:54:01;;;;;;;4.90;4.20;;;;;;;25.33;100.00;99153.65;105176;1271;67571;-75
2022/07/07 05:56:27;;;;;;;5.10;4.20;;;;;;;25.63;100.00;99151.42;105188;1271;60389;-74
2022/07/07 05:58:52;;;;;;;6.10;4.40;;;;;;;25.77;100.00;99154.91;105151;1271;60534;-74
2022/07/07 06:01:18;;;;;;;4.60;4.20;;;;;;;25.93;100.00;99158.01;105192;1271;60481;-75
2022/07/07 06:03:44;;;;;;;8.00;4.30;;;;;;;26.09;100.00;99158.55;105180;1271;60419;-74
2022/07/07 06:06:10;;;;;;;5.60;4.70;;;;;;;26.48;100.00;99159.58;105191;1271;60504;-74
2022/07/07 06:08:36;;;;;;;4.50;4.20;;;;;;;26.61;100.00;99155.49;105167;1271;60547;-74
2022/07/07 06:11:03;;;;;;;5.20;4.00;;;;;;;26.27;100.00;99152.37;105223;1271;60487;-74
2022/07/07 06:13:28;;;;;;;4.00;3.60;;;;;;;26.36;100.00;99150.28;105182;1271;74994;-74
2022/07/07 06:15:56;;;;;;;5.20;3.30;;;;;;;26.56;100.00;99148.38;105188;1271;60490;-76
2022/07/07 06:18:23;;;;;;;6.70;4.00;;;;;;;26.64;100.00;99147.83;105206;1271;73422;-74
2022/07/07 06:20:49;;;;;;;5.50;3.70;;;;;;;26.98;100.00;99142.79;105286;1271;60516;-75
2022/07/07 06:23:15;;;;;;;6.30;3.80;;;;;;;26.88;100.00;99143.13;105220;1271;60500;-75
2022/07/07 06:25:43;;;;;;;5.40;4.30;;;;;;;26.34;100.00;99144.26;105235;1271;60510;-74
2022/07/07 06:28:09;;;;;;;4.20;3.70;;;;;;;26.52;100.00;99148.27;105301;1271;68373;-76
2022/07/07 06:30:35;;;;;;;4.70;4.00;;;;;;;26.39;99.83;99148.92;104989;1271;60676;-74
2022/07/07 06:33:01;;;;;;;7.20;4.20;;;;;;;26.19;100.00;99146.02;105282;1271;60458;-77
2022/07/07 06:35:27;;;;;;;7.10;4.10;;;;;;;26.28;100.00;99146.36;105356;1271;60458;-75
2022/07/07 06:37:53;;;;;;;4.40;3.50;;;;;;;26.35;100.00;99145.36;105305;1270;60568;-75
2022/07/07 06:40:21;;;;;;;4.20;3.70;;;;;;;26.62;100.00;99147.93;105315;1272;60455;-74
2022/07/07 06:42:47;;;;;;;5.30;3.70;;;;;;;26.89;99.96;99141.16;105231;1274;60593;-76
2022/07/07 06:45:14;;;;;;;5.90;3.50;;;;;;;26.65;100.00;99147.78;105529;1271;60357;-75
2022/07/07 06:47:40;;;;;;;8.00;4.30;;;;;;;26.54;100.00;99149.23;105615;1271;60388;-75
2022/07/07 06:50:09;;;;;;;4.90;3.60;;;;;;;26.86;99.87;99142.20;105242;1271;60807;-76
2022/07/07 06:52:35;;;;;;;4.10;3.80;;;;;;;26.68;98.61;99140.36;105393;1271;70244;-76
2022/07/07 06:55:07;;;;;;;4.50;3.50;;;;;;;26.62;98.04;99134.43;108247;1271;59059;-75
2022/07/07 06:57:33;;;;;;;4.50;4.10;;;;;;;26.78;96.87;99129.71;108610;1271;58137;-75
2022/07/07 06:59:59;;;;;;;5.10;4.10;;;;;;;26.56;94.63;99129.86;108477;1271;58730;-74
2022/07/07 07:02:25;;;;;;;5.00;3.80;;;;;;;26.43;94.62;99129.64;108642;1270;58853;-75
2022/07/07 07:04:51;;;;;;;4.20;3.50;;;;;;;26.66;95.38;99127.09;107131;1271;59335;-75
2022/07/07 07:07:18;;;;;;;8.10;3.70;;;;;;;26.86;95.59;99122.39;105243;1271;60477;-75
2022/07/07 07:09:45;;;;;;;5.80;3.80;;;;;;;27.07;95.06;99122.62;105221;1271;60557;-78
2022/07/07 07:12:11;;;;;;;8.00;4.50;;;;;;;27.27;95.13;99122.82;105213;1271;60474;-76
2022/07/07 07:14:37;;;;;;;4.20;3.50;;;;;;;27.55;94.67;99115.40;105270;1271;60469;-74
2022/07/07 07:17:03;;;;;;;10.60;3.80;;;;;;;27.54;93.76;99111.79;105227;1271;60914;-77
2022/07/07 07:19:29;;;;;;;4.30;3.50;;;;;;;27.43;93.24;99120.15;104946;1274;60521;-76
2022/07/07 07:21:55;;;;;;;6.90;3.60;;;;;;;27.22;92.34;99116.78;105209;1271;60452;-75
2022/07/07 07:24:21;;;;;;;4.60;4.10;;;;;;;27.11;91.85;99114.21;105238;1270;60955;-74
2022/07/07 07:26:47;;;;;;;5.70;3.50;;;;;;;26.93;91.11;99110.03;105210;1271;68305;-75
2022/07/07 07:29:14;;;;;;;7.50;5.00;;;;;;;26.64;91.40;99113.63;105170;1269;60482;-74
2022/07/07 07:31:41;;;;;;;4.30;3.90;;;;;;;26.44;90.65;99115.29;105220;1271;60475;-75
2022/07/07 07:34:08;;;;;;;4.70;3.60;;;;;;;25.99;88.06;99117.63;105161;1271;60469;-76
2022/07/07 07:36:33;;;;;;;5.00;3.90;;;;;;;25.68;89.47;99117.63;105209;1271;74493;-74
2022/07/07 07:39:00;;;;;;;3.80;3.50;;;;;;;25.51;90.75;99118.38;105195;1271;60584;-78
2022/07/07 07:41:26;;;;;;;6.10;3.80;;;;;;;25.49;90.22;99113.85;105175;1271;60530;-74
2022/07/07 07:43:52;;;;;;;4.30;3.70;;;;;;;25.30;87.67;99115.75;105220;1271;60484;-75
2022/07/07 07:46:19;;;;;;;3.60;3.30;;;;;;;24.92;88.49;99113.42;105182;1271;60494;-75
2022/07/07 07:48:46;;;;;;;4.90;3.60;;;;;;;24.83;89.77;99113.45;105084;1271;60497;-76
2022/07/07 07:51:12;;;;;;;6.30;4.00;;;;;;;24.83;88.87;99114.13;105149;1271;60513;-74
2022/07/07 07:53:38;;;;;;;5.50;3.90;;;;;;;24.76;90.11;99114.73;105214;1271;60771;-75
2022/07/07 07:56:05;;;;;;;6.00;3.60;;;;;;;24.75;89.17;99112.69;104983;1271;60619;-75
2022/07/07 07:58:31;;;;;;;4.90;4.00;;;;;;;24.79;90.65;99103.38;105196;1271;60367;-75
2022/07/07 08:00:59;;;;;;;4.40;3.50;;;;;;;24.88;90.69;99106.67;105255;1270;60490;-75
2022/07/07 08:03:25;;;;;;;5.60;3.70;;;;;;;24.96;91.14;99105.27;105180;1271;60583;-74
2022/07/07 08:05:51;;;;;;;4.00;3.50;;;;;;;25.10;90.75;99106.75;105169;1271;60497;-75
2022/07/07 08:08:16;;;;;;;4.90;3.60;;;;;;;25.15;90.78;99110.35;105171;1271;62449;-75
2022/07/07 08:10:42;;;;;;;5.50;4.00;;;;;;;25.13;90.10;99109.45;105221;1270;60383;-76
2022/07/07 08:13:09;;;;;;;3.50;3.20;;;;;;;25.06;89.71;99107.30;105203;1271;60484;-78
2022/07/07 08:15:35;;;;;;;4.80;3.60;;;;;;;24.92;88.23;99109.41;105244;1271;60493;-74
2022/07/07 08:18:01;;;;;;;7.90;3.60;;;;;;;24.79;89.11;99106.36;104999;1271;60521;-74
2022/07/07 08:20:28;;;;;;;3.30;3.00;;;;;;;24.85;89.68;99109.07;105154;1272;60507;-75
2022/07/07 08:22:54;;;;;;;3.70;3.20;;;;;;;25.03;89.41;99103.66;105219;1271;60496;-74
2022/07/07 08:25:20;;;;;;;4.90;3.00;;;;;;;25.12;86.43;99105.02;105313;1271;60547;-74
2022/07/07 08:27:47;;;;;;;3.80;3.20;;;;;;;24.99;85.91;99100.77;105273;1271;71300;-75
2022/07/07 08:30:14;;;;;;;3.30;3.00;;;;;;;25.01;86.52;99098.48;106412;1271;62139;-75
2022/07/07 08:32:43;;;;;;;4.70;3.80;;;;;;;25.13;85.84;99096.80;106837;1271;60904;-76
2022/07/07 08:35:16;;;;;;;3.40;2.50;;;;;;;25.28;84.54;99096.53;106473;1271;72852;-75
2022/07/07 08:37:43;;;;;;;4.00;3.00;;;;;;;25.36;84.21;99092.20;105184;1271;70223;-75
2022/07/07 08:40:12;;;;;;;4.20;3.30;;;;;;;25.56;83.09;99090.77;105248;1271;74424;-76
2022/07/07 08:42:39;;;;;;;5.00;3.70;;;;;;;25.53;80.16;99087.90;105263;1271;60603;-75
2022/07/07 08:45:05;;;;;;;3.90;3.40;;;;;;;25.37;78.43;99084.39;105248;1271;60956;-75
2022/07/07 08:47:33;;;;;;;4.60;3.40;;;;;;;25.36;77.26;99078.75;105182;1271;75533;-76
2022/07/07 08:50:00;;;;;;;3.30;3.00;;;;;;;25.39;75.89;99080.51;105049;1271;70195;-75
2022/07/07 08:52:26;;;;;;;3.30;2.70;;;;;;;25.40;73.77;99077.70;104943;1271;60467;-74
2022/07/07 08:54:54;;;;;;;5.50;3.20;;;;;;;25.45;73.72;99077.70;105163;1271;60603;-75
2022/07/07 08:57:20;;;;;;;3.90;2.50;;;;;;;25.63;72.48;99077.81;105244;1271;61860;-75
2022/07/07 08:59:46;;;;;;;2.80;2.40;;;;;;;25.70;71.19;99079.13;104970;1274;60487;-75
2022/07/07 09:02:12;;;;;;;4.60;2.70;;;;;;;25.97;71.56;99079.48;105197;1271;60479;-75
2022/07/07 09:04:38;;;;;;;3.00;2.40;;;;;;;26.19;70.24;99080.48;105102;1271;60475;-75
2022/07/07 09:07:05;;;;;;;3.10;1.90;;;;;;;26.38;67.24;99075.98;105193;1271;60542;-77
2022/07/07 09:09:39;;;;;;;2.40;2.20;;;;;;;26.30;54.23;99073.54;105310;1271;60631;-75
2022/07/07 09:12:07;;;;;;;3.30;2.30;;;;;;;26.04;52.57;99073.27;105326;1271;74622;-75
2022/07/07 09:14:39;;;;;;;2.50;2.20;;;;;;;25.90;52.65;99072.16;105311;1271;69425;-75
2022/07/07 09:17:32;;;;;;;3.40;2.40;;;;;;;26.26;53.72;99068.80;105226;1271;74227;-75
2022/07/07 09:19:58;;;;;;;3.40;1.90;;;;;;;26.43;51.58;99070.52;105169;1271;61039;-76
2022/07/07 09:22:54;;;;;;;2.20;2.00;;;;;;;26.47;51.55;99071.34;105207;1271;59376;-74
2022/07/07 09:25:24;;;;;;;2.80;2.10;;;;;;;26.60;50.98;99067.61;105174;1271;74916;-74
2022/07/07 09:27:58;;;;;;;4.20;1.80;;;;;;;26.34;46.89;99066.99;105230;1271;69244;-74
2022/07/07 09:30:45;;;;;;;4.90;2.30;;;;;;;26.14;46.71;99065.21;105220;1271;73251;-74
2022/07/07 09:33:25;;;;;;;5.80;2.10;;;;;;;26.31;48.05;99066.31;105078;1271;60575;-75
2022/07/07 09:38:40;;;;;;;4.30;2.30;;;;;;;26.36;48.11;99058.55;105155;1271;74329;-74
2022/07/07 09:41:13;;;;;;;2.60;2.00;;;;;;;26.31;48.32;99061.18;105195;1271;67362;-74
2022/07/07 09:43:47;;;;;;;3.60;2.50;;;;;;;26.60;48.63;99052.79;105193;1271;73548;-75
2022/07/07 09:46:23;;;;;;;2.70;1.70;;;;;;;26.79;47.01;99053.38;104891;1271;447891;-75
2022/07/07 09:48:52;;;;;;;2.90;1.70;;;;;;;26.70;48.05;99054.39;105215;1271;60747;-76
2022/07/07 09:51:26;;;;;;;3.80;1.90;;;;;;;26.86;47.12;99051.11;105207;1271;73399;-75
2022/07/07 09:54:12;;;;;;;2.80;1.90;;;;;;;27.03;45.62;99054.68;105202;1271;69198;-75
2022/07/07 09:56:41;;;;;;;2.20;2.00;;;;;;;27.19;46.38;99051.31;105171;1271;72946;-75
2022/07/07 09:59:09;;;;;;;4.40;2.00;;;;;;;27.44;44.50;99053.91;105118;1271;60590;-75
2022/07/07 10:01:38;;;;;;;3.70;2.00;;;;;;;27.18;43.26;99054.77;105252;1271;60862;-76
2022/07/07 10:04:07;;;;;;;2.30;1.70;;;;;;;26.93;43.28;99055.38;105241;1271;74343;-74
2022/07/07 10:06:35;;;;;;;5.40;2.10;;;;;;;26.60;43.23;99053.13;105153;1271;70340;-74
2022/07/07 10:09:18;;;;;;;3.70;1.70;;;;;;;26.42;44.13;99052.07;105276;1271;74434;-75
2022/07/07 10:11:46;;;;;;;4.20;1.80;;;;;;;26.41;44.77;99047.98;105267;1271;60465;-75
2022/07/07 10:14:15;;;;;;;1.80;1.50;;;;;;;26.44;45.15;99047.83;105166;1271;61894;-75
2022/07/07 10:16:45;;;;;;;1.70;1.60;;;;;;;26.53;45.66;99046.89;105231;1271;75002;-75
2022/07/07 10:19:15;;;;;;;1.80;1.70;;;;;;;26.57;45.55;99039.06;105313;1271;70196;-75
2022/07/07 10:21:42;;;;;;;1.90;1.60;;;;;;;26.71;45.93;99038.92;105189;1271;74484;-74
2022/07/07 10:24:09;;;;;;;1.60;1.50;;;;;;;26.90;45.45;99039.84;105091;1271;60555;-74
2022/07/07 10:26:41;;;;;;;2.50;1.80;;;;;;;26.99;44.07;99038.27;105243;1271;60422;-74
2022/07/07 10:29:09;;;;;;;2.50;1.80;;;;;;;26.68;40.83;99037.92;105254;1271;75637;-73
2022/07/07 10:31:37;;;;;;;3.60;2.30;;;;;;;26.45;42.33;99039.59;105273;1271;68261;-76
2022/07/07 10:34:09;;;;;;;2.40;1.60;;;;;;;26.61;43.22;99034.58;104966;1274;74237;-75
2022/07/07 10:36:45;;;;;;;2.80;1.70;;;;;;;26.86;42.12;99028.89;105248;1271;60385;-75
2022/07/07 10:39:13;;;;;;;4.00;1.60;;;;;;;26.78;41.06;99025.09;105191;1271;60733;-75
2022/07/07 10:42:06;;;;;;;1.70;1.50;;;;;;;26.47;39.68;99024.35;105285;1271;74921;-75
2022/07/07 10:44:38;;;;;;;2.30;1.70;;;;;;;26.40;41.01;99025.20;105186;1271;70255;-74
2022/07/07 10:47:14;;;;;;;1.90;1.40;;;;;;;26.58;41.72;99023.98;105181;1271;75240;-74
2022/07/07 10:49:43;;;;;;;2.80;1.80;;;;;;;26.82;42.10;99022.87;105114;1271;60471;-74
2022/07/07 10:52:12;;;;;;;2.60;1.60;;;;;;;27.13;42.36;99019.60;104925;1271;62129;-73
2022/07/07 10:54:44;;;;;;;3.10;1.60;;;;;;;27.44;41.75;99015.59;105247;1271;74948;-74
2022/07/07 10:57:10;;;;;;;2.60;1.60;;;;;;;27.67;42.18;99011.44;105177;1271;70123;-75
2022/07/07 11:00:06;;;;;;;2.00;1.50;;;;;;;27.81;42.04;99014.55;104986;1271;60472;-75
2022/07/07 11:02:38;;;;;;;2.50;1.50;;;;;;;28.03;41.20;99010.85;105175;1271;60366;-75
2022/07/07 11:05:31;;;;;;;2.60;1.60;;;;;;;27.97;39.91;99008.85;105187;1269;60952;-75
2022/07/07 11:07:59;;;;;;;2.60;1.50;;;;;;;27.87;40.30;99002.55;105167;1271;74583;-75
2022/07/07 11:10:37;;;;;;;3.20;1.50;;;;;;;27.76;40.66;99000.70;104988;1271;69571;-76
2022/07/07 11:13:16;;;;;;;1.40;1.30;;;;;;;27.77;39.98;99003.55;105153;1271;74303;-75
2022/07/07 11:15:47;;;;;;;4.30;1.90;;;;;;;27.56;39.04;99005.73;105192;1271;60533;-75
2022/07/07 11:18:16;;;;;;;2.70;1.60;;;;;;;27.47;39.55;99003.94;105068;1271;60990;-74
2022/07/07 11:20:57;;;;;;;3.70;1.80;;;;;;;27.47;39.11;98999.46;105239;1271;75899;-74
2022/07/07 11:23:25;;;;;;;4.20;2.00;;;;;;;27.29;38.75;98997.63;105029;1271;69202;-75